Time;durP1;ratioP1;P1;durP2;ratioP2;P2;SDS_P1;SDS_P2;PMS_P1;PMS_P2;Temp;Humidity;BMP_temperature;BMP_pressure;BME280_temperature;BME280_humidity;BME280_pressure;Samples;Min_cycle;Max_cycle;Signal;HPM_P1;HPM_P2
2024/04/04 00:01:10;;;;;;;;;;;;;;;21.18;33.70;100803.02;103035;1291;62972;-78
2024/04/04 00:03:36;;;;;;;;;;;;;;;21.17;33.55;100804.10;103043;1290;74899;-78
2024/04/04 00:06:02;;;;;;;;;;;;;;;21.17;33.89;100805.02;103049;1291;62949;-78
2024/04/04 00:08:28;;;;;;;;;;;;;;;21.17;33.63;100808.10;103141;1294;62974;-78
2024/04/04 00:10:56;;;;;;;;;;;;;;;21.17;33.83;100803.96;103009;1290;62987;-77
2024/04/04 00:13:22;;;;;;;;;;;;;;;21.17;33.77;100798.41;102849;1294;63021;-78
2024/04/04 00:15:47;;;;;;;;;;;;;;;21.17;33.79;100798.05;103070;1292;63003;-78
2024/04/04 00:18:13;;;;;;;;;;;;;;;21.16;33.90;100795.40;103073;1291;63009;-77
2024/04/04 00:20:39;;;;;;;;;;;;;;;21.17;33.88;100794.14;102770;1294;63481;-79
2024/04/04 00:23:04;;;;;;;;;;;;;;;21.16;33.79;100783.95;102854;1292;63652;-77
2024/04/04 00:25:31;;;;;;;;;;;;;;;21.16;33.91;100782.16;102828;1292;76030;-79
2024/04/04 00:27:56;;;;;;;;;;;;;;;21.16;33.65;100779.31;102832;1291;63750;-79
2024/04/04 00:30:22;;;;;;;;;;;;;;;21.16;33.79;100773.25;102901;1292;63252;-78
2024/04/04 00:32:48;;;;;;;;;;;;;;;21.17;33.73;100776.25;103049;1294;63038;-77
2024/04/04 00:35:13;;;;;;;;;;;;;;;21.16;33.80;100780.73;102786;1291;63962;-78
2024/04/04 00:37:41;;;;;;;;;;;;;;;21.16;33.87;100782.17;102976;1294;64184;-76
2024/04/04 00:40:06;;;;;;;;;;;;;;;21.16;33.91;100785.91;102787;1291;63330;-79
2024/04/04 00:42:32;;;;;;;;;;;;;;;21.16;33.76;100789.55;103244;1289;62975;-78
2024/04/04 00:44:57;;;;;;;;;;;;;;;21.16;33.85;100793.48;102852;1292;63028;-78
2024/04/04 00:47:23;;;;;;;;;;;;;;;21.16;33.72;100785.42;102832;1294;63122;-78
2024/04/04 00:49:49;;;;;;;;;;;;;;;21.16;33.79;100781.32;102823;1291;63765;-80
2024/04/04 00:52:14;;;;;;;;;;;;;;;21.16;33.89;100776.13;103152;1293;63385;-78
2024/04/04 00:54:43;;;;;;;;;;;;;;;21.16;33.70;100773.27;102857;1290;63463;-77
2024/04/04 00:57:09;;;;;;;;;;;;;;;21.15;33.82;100774.91;102770;1295;71372;-79
2024/04/04 00:59:38;;;;;;;;;;;;;;;21.16;33.76;100774.88;102807;1292;63094;-78
2024/04/04 01:02:04;;;;;;;;;;;;;;;21.15;33.80;100772.77;102838;1289;62952;-78
2024/04/04 01:04:30;;;;;;;;;;;;;;;21.16;33.86;100776.32;103045;1290;63003;-79
2024/04/04 01:06:55;;;;;;;;;;;;;;;21.16;33.76;100776.48;102826;1291;73918;-77
2024/04/04 01:09:21;;;;;;;;;;;;;;;21.15;33.82;100770.08;102819;1294;63719;-77
2024/04/04 01:11:46;;;;;;;;;;;;;;;21.15;33.74;100769.38;103118;1294;62994;-78
2024/04/04 01:14:13;;;;;;;;;;;;;;;21.15;33.89;100757.55;103044;1294;62894;-78
2024/04/04 01:16:38;;;;;;;;;;;;;;;21.16;33.79;100750.91;102819;1297;63045;-78
2024/04/04 01:19:04;;;;;;;;;;;;;;;21.15;33.83;100745.95;102792;1292;64467;-78
2024/04/04 01:21:29;;;;;;;;;;;;;;;21.15;33.85;100750.42;102871;1294;62994;-78
2024/04/04 01:23:55;;;;;;;;;;;;;;;21.15;33.89;100754.36;102862;1292;64475;-78
2024/04/04 01:26:21;;;;;;;;;;;;;;;21.15;33.84;100754.00;102724;1294;62805;-78
2024/04/04 01:28:46;;;;;;;;;;;;;;;21.15;33.80;100753.83;102780;1297;63192;-77
2024/04/04 01:31:12;;;;;;;;;;;;;;;21.15;33.68;100749.15;102801;1295;63957;-79
2024/04/04 01:33:37;;;;;;;;;;;;;;;21.15;33.86;100752.03;102712;1297;63171;-78
2024/04/04 01:36:03;;;;;;;;;;;;;;;21.15;33.95;100752.93;102717;1295;63011;-77
2024/04/04 01:38:28;;;;;;;;;;;;;;;21.15;33.89;100750.42;102773;1294;63111;-78
2024/04/04 01:40:54;;;;;;;;;;;;;;;21.15;33.85;100753.47;102748;1292;63014;-78
2024/04/04 01:43:20;;;;;;;;;;;;;;;21.15;33.98;100756.67;102664;1295;63056;-77
2024/04/04 01:45:45;;;;;;;;;;;;;;;21.15;33.84;100763.86;102726;1298;63094;-78
2024/04/04 01:48:11;;;;;;;;;;;;;;;21.14;33.98;100763.53;102797;1294;63007;-76
2024/04/04 01:50:37;;;;;;;;;;;;;;;21.14;33.89;100763.34;102617;1294;62918;-78
2024/04/04 01:53:02;;;;;;;;;;;;;;;21.14;33.88;100765.67;102631;1297;62980;-77
2024/04/04 01:55:31;;;;;;;;;;;;;;;21.14;33.85;100756.75;102732;1294;63214;-77
2024/04/04 01:57:57;;;;;;;;;;;;;;;21.14;33.95;100756.73;102850;1292;76112;-80
2024/04/04 02:00:23;;;;;;;;;;;;;;;21.14;34.07;100756.38;103096;1292;63765;-79
2024/04/04 02:02:48;;;;;;;;;;;;;;;21.14;33.90;100758.91;102786;1292;62997;-77
2024/04/04 02:05:14;;;;;;;;;;;;;;;21.14;33.94;100763.02;102843;1297;63002;-78
2024/04/04 02:07:39;;;;;;;;;;;;;;;21.14;33.86;100775.00;103035;1292;62981;-77
2024/04/04 02:10:05;;;;;;;;;;;;;;;21.14;33.94;100778.05;102806;1294;64008;-78
2024/04/04 02:12:31;;;;;;;;;;;;;;;21.13;33.89;100768.07;102980;1292;63826;-78
2024/04/04 02:14:57;;;;;;;;;;;;;;;21.14;33.98;100768.73;102956;1291;62940;-77
2024/04/04 02:17:23;;;;;;;;;;;;;;;21.14;33.96;100769.63;102827;1291;62947;-77
2024/04/04 02:19:49;;;;;;;;;;;;;;;21.13;34.05;100770.39;103040;1294;63006;-78
2024/04/04 02:22:15;;;;;;;;;;;;;;;21.13;33.97;100764.48;102322;1290;690239;-78
2024/04/04 02:24:42;;;;;;;;;;;;;;;21.13;33.96;100753.95;102801;1294;63980;-78
2024/04/04 02:27:08;;;;;;;;;;;;;;;21.13;34.00;100746.98;102768;1294;64160;-79
2024/04/04 02:29:34;;;;;;;;;;;;;;;21.13;33.99;100744.28;103094;1292;63007;-78
2024/04/04 02:32:00;;;;;;;;;;;;;;;21.13;33.92;100742.72;102731;1292;62918;-78
2024/04/04 02:34:25;;;;;;;;;;;;;;;21.13;33.93;100748.25;102831;1294;63070;-78
2024/04/04 02:36:51;;;;;;;;;;;;;;;21.12;34.06;100744.52;102816;1292;62966;-77
2024/04/04 02:39:16;;;;;;;;;;;;;;;21.13;33.95;100750.04;102859;1297;63125;-78
2024/04/04 02:41:42;;;;;;;;;;;;;;;21.12;33.92;100752.04;103041;1295;63719;-77
2024/04/04 02:44:07;;;;;;;;;;;;;;;21.13;33.96;100758.84;103111;1293;63016;-78
2024/04/04 02:46:33;;;;;;;;;;;;;;;21.12;34.02;100757.20;103047;1294;64107;-77
2024/04/04 02:48:58;;;;;;;;;;;;;;;21.12;34.10;100763.30;103052;1292;62872;-77
2024/04/04 02:51:25;;;;;;;;;;;;;;;21.12;34.05;100771.19;102793;1292;63077;-77
2024/04/04 02:53:50;;;;;;;;;;;;;;;21.13;34.05;100772.44;102892;1294;63533;-77
2024/04/04 02:56:17;;;;;;;;;;;;;;;21.12;34.07;100779.61;102810;1294;62964;-78
2024/04/04 02:58:43;;;;;;;;;;;;;;;21.12;34.09;100780.87;103044;1295;63030;-78
2024/04/04 03:01:09;;;;;;;;;;;;;;;21.12;34.04;100778.89;102800;1292;63715;-78
2024/04/04 03:03:35;;;;;;;;;;;;;;;21.12;34.11;100773.02;103041;1292;63979;-78
2024/04/04 03:06:01;;;;;;;;;;;;;;;21.11;34.10;100774.48;103043;1289;63027;-77
2024/04/04 03:08:26;;;;;;;;;;;;;;;21.12;34.10;100772.31;103028;1291;62923;-78
2024/04/04 03:10:52;;;;;;;;;;;;;;;21.12;33.94;100773.59;103129;1303;62949;-77
2024/04/04 03:13:17;;;;;;;;;;;;;;;21.11;34.15;100774.31;102830;1294;63001;-78
2024/04/04 03:15:53;;;;;;;;;;;;;;;21.11;34.12;100769.64;102808;1292;63023;-78
2024/04/04 03:18:18;;;;;;;;;;;;;;;21.12;34.05;100773.75;102775;1296;63008;-78
2024/04/04 03:20:44;;;;;;;;;;;;;;;21.11;33.99;100773.25;102809;1292;62985;-78
2024/04/04 03:23:10;;;;;;;;;;;;;;;21.11;34.09;100772.16;102806;1292;64042;-78
2024/04/04 03:25:35;;;;;;;;;;;;;;;21.11;34.00;100768.77;102790;1290;62937;-78
2024/04/04 03:28:01;;;;;;;;;;;;;;;21.11;34.06;100768.60;102811;1294;63019;-78
2024/04/04 03:30:27;;;;;;;;;;;;;;;21.10;33.99;100769.15;102812;1292;62911;-79
2024/04/04 03:32:52;;;;;;;;;;;;;;;21.10;34.05;100767.91;103022;1295;63379;-77
2024/04/04 03:35:18;;;;;;;;;;;;;;;21.10;34.01;100760.76;102801;1290;63001;-80
2024/04/04 03:37:44;;;;;;;;;;;;;;;21.10;34.03;100758.08;103046;1292;64361;-78
2024/04/04 03:40:09;;;;;;;;;;;;;;;21.10;34.05;100766.66;103035;1294;63019;-78
2024/04/04 03:42:35;;;;;;;;;;;;;;;21.10;34.14;100767.78;103027;1291;62976;-78
2024/04/04 03:45:01;;;;;;;;;;;;;;;21.10;33.98;100767.77;102729;1297;62953;-79
2024/04/04 03:47:26;;;;;;;;;;;;;;;21.10;34.04;100766.54;102764;1294;62982;-77
2024/04/04 03:49:52;;;;;;;;;;;;;;;21.09;33.95;100764.04;102815;1294;63076;-78
2024/04/04 03:52:17;;;;;;;;;;;;;;;21.09;34.21;100765.16;102882;1292;63069;-78
2024/04/04 03:54:43;;;;;;;;;;;;;;;21.08;34.13;100763.61;103039;1294;63749;-78
2024/04/04 03:57:09;;;;;;;;;;;;;;;21.07;34.14;100761.33;102709;1295;63085;-79
2024/04/04 03:59:34;;;;;;;;;;;;;;;21.06;33.97;100762.14;103077;1295;63090;-78
2024/04/04 04:02:00;;;;;;;;;;;;;;;21.05;34.06;100757.92;102862;1292;62996;-78
2024/04/04 04:04:26;;;;;;;;;;;;;;;21.03;34.08;100756.27;102955;1294;63060;-78
2024/04/04 04:06:51;;;;;;;;;;;;;;;21.02;34.08;100754.38;102768;1292;62950;-80
2024/04/04 04:09:18;;;;;;;;;;;;;;;21.01;34.02;100753.41;102822;1292;63728;-79
2024/04/04 04:11:43;;;;;;;;;;;;;;;20.99;34.24;100754.41;102857;1294;63086;-79
2024/04/04 04:14:09;;;;;;;;;;;;;;;20.98;34.15;100757.68;102985;1294;63007;-79
2024/04/04 04:16:35;;;;;;;;;;;;;;;20.97;34.19;100756.92;102834;1290;63060;-78
2024/04/04 04:19:01;;;;;;;;;;;;;;;20.96;34.28;100759.50;103087;1294;63001;-79
2024/04/04 04:21:26;;;;;;;;;;;;;;;20.94;34.25;100759.42;103124;1294;62916;-78
2024/04/04 04:23:53;;;;;;;;;;;;;;;20.92;34.19;100758.81;102943;1291;63081;-78
2024/04/04 04:26:19;;;;;;;;;;;;;;;20.91;34.18;100756.21;102893;1294;76073;-78
2024/04/04 04:28:44;;;;;;;;;;;;;;;20.90;34.39;100755.06;103073;1294;63435;-77
2024/04/04 04:31:26;;;;;;;;;;;;;;;20.88;34.17;100755.39;103115;1293;63080;-78
2024/04/04 04:33:55;;;;;;;;;;;;;;;20.86;34.22;100756.02;103084;1294;72248;-78
2024/04/04 04:36:25;;;;;;;;;;;;;;;20.85;34.13;100760.05;103091;1293;76026;-77
2024/04/04 04:38:50;;;;;;;;;;;;;;;20.84;34.14;100763.72;102910;1289;63069;-78
2024/04/04 04:41:16;;;;;;;;;;;;;;;20.83;34.24;100765.20;103188;1290;63716;-78
2024/04/04 04:43:43;;;;;;;;;;;;;;;20.83;34.17;100765.05;103131;1295;63971;-79
2024/04/04 04:46:09;;;;;;;;;;;;;;;20.81;34.16;100762.48;103428;1293;63257;-79
2024/04/04 04:48:34;;;;;;;;;;;;;;;20.80;34.14;100766.71;103561;1289;62933;-79
2024/04/04 04:51:00;;;;;;;;;;;;;;;20.79;34.12;100770.70;103236;1304;63410;-78
2024/04/04 04:53:25;;;;;;;;;;;;;;;20.79;34.15;100774.28;103304;1293;63661;-77
2024/04/04 04:55:51;;;;;;;;;;;;;;;20.78;34.08;100774.89;103440;1289;72476;-79
2024/04/04 04:58:18;;;;;;;;;;;;;;;20.76;34.27;100775.31;103896;1290;63886;-78
2024/04/04 05:00:44;;;;;;;;;;;;;;;20.76;34.18;100780.16;104270;1292;62932;-80
2024/04/04 05:03:09;;;;;;;;;;;;;;;20.76;34.36;100778.56;104219;1290;62967;-81
2024/04/04 05:05:35;;;;;;;;;;;;;;;20.75;34.15;100775.77;104391;1295;62991;-82
2024/04/04 05:08:02;;;;;;;;;;;;;;;20.74;34.31;100769.54;104427;1294;63408;-79
2024/04/04 05:10:29;;;;;;;;;;;;;;;20.72;34.24;100767.77;103960;1292;62865;-79
2024/04/04 05:12:55;;;;;;;;;;;;;;;20.72;34.27;100767.40;104009;1290;62892;-78
2024/04/04 05:15:21;;;;;;;;;;;;;;;20.73;34.24;100766.10;103784;1290;62984;-78
2024/04/04 05:17:46;;;;;;;;;;;;;;;20.73;34.18;100769.30;103832;1294;63001;-80
2024/04/04 05:20:13;;;;;;;;;;;;;;;20.74;34.13;100775.34;103871;1292;63004;-78
2024/04/04 05:22:43;;;;;;;;;;;;;;;20.74;34.34;100776.04;103704;1289;62917;-78
2024/04/04 05:25:13;;;;;;;;;;;;;;;20.74;34.21;100776.92;103901;1289;62992;-78
2024/04/04 05:27:39;;;;;;;;;;;;;;;20.74;34.22;100777.95;103785;1289;72628;-78
2024/04/04 05:30:06;;;;;;;;;;;;;;;20.75;34.23;100775.62;104610;1294;60733;-80
2024/04/04 05:32:31;;;;;;;;;;;;;;;20.74;34.37;100776.01;104581;1295;63000;-78
2024/04/04 05:34:58;;;;;;;;;;;;;;;20.75;34.26;100780.60;104338;1289;62946;-78
2024/04/04 05:37:23;;;;;;;;;;;;;;;20.76;34.12;100780.88;104370;1292;62904;-78
2024/04/04 05:39:49;;;;;;;;;;;;;;;20.78;34.22;100781.86;104409;1295;62921;-80
2024/04/04 05:42:14;;;;;;;;;;;;;;;20.79;34.27;100777.14;104434;1290;62975;-77
2024/04/04 05:44:40;;;;;;;;;;;;;;;20.80;34.19;100780.63;104406;1291;63016;-78
2024/04/04 05:47:05;;;;;;;;;;;;;;;20.80;34.24;100777.56;104614;1290;63008;-79
2024/04/04 05:49:32;;;;;;;;;;;;;;;20.81;34.24;100775.70;104387;1290;61903;-78
2024/04/04 05:51:57;;;;;;;;;;;;;;;20.81;34.23;100775.01;104553;1292;62925;-77
2024/04/04 05:54:23;;;;;;;;;;;;;;;20.80;34.10;100772.61;104620;1289;63005;-79
2024/04/04 05:56:49;;;;;;;;;;;;;;;20.77;34.06;100774.36;104669;1292;61246;-78
2024/04/04 05:59:14;;;;;;;;;;;;;;;20.75;34.14;100776.45;104406;1289;63106;-79
2024/04/04 06:01:40;;;;;;;;;;;;;;;20.79;34.24;100773.39;104482;1290;72366;-78
2024/04/04 06:04:06;;;;;;;;;;;;;;;20.82;34.40;100776.39;104166;1291;63004;-78
2024/04/04 06:06:31;;;;;;;;;;;;;;;20.83;34.33;100777.02;103951;1295;62904;-79
2024/04/04 06:08:57;;;;;;;;;;;;;;;20.81;34.43;100773.23;104122;1289;62982;-79
2024/04/04 06:11:23;;;;;;;;;;;;;;;20.78;34.08;100768.98;104242;1291;62997;-80
2024/04/04 06:13:49;;;;;;;;;;;;;;;20.76;34.17;100770.52;104357;1290;63055;-80
2024/04/04 06:16:14;;;;;;;;;;;;;;;20.75;34.03;100768.94;104424;1291;76066;-82
2024/04/04 06:18:40;;;;;;;;;;;;;;;20.76;34.17;100774.24;104471;1291;64045;-82
2024/04/04 06:21:05;;;;;;;;;;;;;;;20.78;34.10;100780.56;104154;1297;61556;-79
2024/04/04 06:23:31;;;;;;;;;;;;;;;20.78;33.93;100783.07;104323;1295;62975;-81
2024/04/04 06:25:57;;;;;;;;;;;;;;;20.80;33.89;100787.59;104680;1294;60683;-81
2024/04/04 06:28:22;;;;;;;;;;;;;;;20.81;33.84;100788.09;104823;1291;75916;-79
2024/04/04 06:30:48;;;;;;;;;;;;;;;20.83;33.95;100787.02;104561;1290;63003;-81
2024/04/04 06:33:14;;;;;;;;;;;;;;;20.84;33.85;100787.33;104134;1289;62890;-78
2024/04/04 06:35:39;;;;;;;;;;;;;;;20.81;33.86;100784.86;104112;1291;62803;-78
2024/04/04 06:38:05;;;;;;;;;;;;;;;20.80;33.70;100781.52;104164;1289;62921;-79
2024/04/04 06:40:32;;;;;;;;;;;;;;;20.81;33.72;100782.86;104248;1290;63021;-79
2024/04/04 06:42:58;;;;;;;;;;;;;;;20.84;33.83;100785.67;103971;1290;62971;-80
2024/04/04 06:45:23;;;;;;;;;;;;;;;20.82;33.83;100783.89;104134;1289;62942;-77
2024/04/04 06:47:58;;;;;;;;;;;;;;;20.79;34.02;100786.42;103891;1291;63162;-77
2024/04/04 06:50:27;;;;;;;;;;;;;;;20.79;34.08;100785.66;104223;1292;76021;-79
2024/04/04 06:52:53;;;;;;;;;;;;;;;20.79;34.07;100785.89;103912;1291;63001;-80
2024/04/04 06:55:18;;;;;;;;;;;;;;;20.73;33.69;100787.67;104446;1290;62952;-80
2024/04/04 06:57:44;;;;;;;;;;;;;;;20.72;33.83;100785.85;103972;1296;63000;-78
2024/04/04 07:00:11;;;;;;;;;;;;;;;20.72;33.73;100786.02;104052;1291;63007;-81
2024/04/04 07:02:40;;;;;;;;;;;;;;;20.72;33.74;100786.53;104467;1290;62921;-80
2024/04/04 07:05:06;;;;;;;;;;;;;;;20.75;33.69;100786.66;104082;1291;63005;-79
2024/04/04 07:07:31;;;;;;;;;;;;;;;20.75;33.66;100787.40;104286;1294;63540;-80
2024/04/04 07:09:57;;;;;;;;;;;;;;;20.73;33.61;100786.85;104617;1290;64365;-80
2024/04/04 07:12:23;;;;;;;;;;;;;;;20.72;33.60;100782.61;104379;1290;62978;-79
2024/04/04 07:14:48;;;;;;;;;;;;;;;20.73;33.73;100782.73;104520;1294;62976;-80
2024/04/04 07:17:14;;;;;;;;;;;;;;;20.75;33.61;100781.33;104542;1292;62876;-80
2024/04/04 07:19:39;;;;;;;;;;;;;;;20.77;33.67;100775.45;104236;1291;62981;-79
2024/04/04 07:22:05;;;;;;;;;;;;;;;20.80;33.77;100775.65;104242;1289;63009;-81
2024/04/04 07:24:30;;;;;;;;;;;;;;;20.82;33.74;100779.27;104225;1289;62993;-79
2024/04/04 07:26:57;;;;;;;;;;;;;;;20.83;33.76;100778.80;104632;1291;62915;-81
2024/04/04 07:29:23;;;;;;;;;;;;;;;20.84;33.79;100776.96;104716;1289;62892;-81
2024/04/04 07:31:49;;;;;;;;;;;;;;;20.85;33.69;100778.13;104824;1290;63043;-80
2024/04/04 07:34:15;;;;;;;;;;;;;;;20.86;33.60;100784.45;104482;1291;75995;-79
2024/04/04 07:36:41;;;;;;;;;;;;;;;20.87;33.71;100786.91;104311;1290;62970;-79
2024/04/04 07:39:09;;;;;;;;;;;;;;;20.87;33.71;100787.61;104466;1291;63029;-79
2024/04/04 07:41:35;;;;;;;;;;;;;;;20.88;33.76;100786.86;104235;1292;62940;-79
2024/04/04 07:44:01;;;;;;;;;;;;;;;20.88;33.75;100785.05;104108;1294;63053;-79
2024/04/04 07:46:27;;;;;;;;;;;;;;;20.87;33.54;100783.70;104078;1289;63093;-80
2024/04/04 07:48:53;;;;;;;;;;;;;;;20.87;33.69;100781.02;104345;1289;62790;-80
2024/04/04 07:51:19;;;;;;;;;;;;;;;20.86;33.52;100778.76;104727;1289;62991;-80
2024/04/04 07:53:44;;;;;;;;;;;;;;;20.82;33.46;100775.67;104518;1293;62972;-79
2024/04/04 07:56:11;;;;;;;;;;;;;;;20.76;33.35;100775.35;104689;1289;62885;-80
2024/04/04 07:58:38;;;;;;;;;;;;;;;20.69;33.45;100771.20;104720;1292;62959;-79
2024/04/04 08:01:04;;;;;;;;;;;;;;;20.64;33.55;100771.14;104701;1292;62965;-78
2024/04/04 08:03:33;;;;;;;;;;;;;;;20.66;33.63;100768.14;104985;1290;62943;-79
2024/04/04 08:05:59;;;;;;;;;;;;;;;20.63;33.65;100762.06;105132;1290;63420;-79
2024/04/04 08:08:26;;;;;;;;;;;;;;;20.66;33.65;100764.60;106119;1289;60349;-80
2024/04/04 08:10:51;;;;;;;;;;;;;;;20.65;33.60;100769.83;106099;1290;60727;-78
2024/04/04 08:13:17;;;;;;;;;;;;;;;20.60;33.52;100774.79;106019;1292;60952;-79
2024/04/04 08:15:43;;;;;;;;;;;;;;;20.64;33.72;100780.14;105800;1289;60666;-79
2024/04/04 08:18:08;;;;;;;;;;;;;;;20.68;33.66;100780.00;106094;1290;60407;-78
2024/04/04 08:20:34;;;;;;;;;;;;;;;20.69;33.61;100777.27;106126;1290;60464;-79
2024/04/04 08:23:00;;;;;;;;;;;;;;;20.69;33.38;100770.83;106069;1289;60649;-81
2024/04/04 08:25:28;;;;;;;;;;;;;;;20.70;33.47;100770.41;105981;1294;60519;-81
2024/04/04 08:27:54;;;;;;;;;;;;;;;20.73;33.42;100769.29;105987;1289;60550;-80
2024/04/04 08:30:19;;;;;;;;;;;;;;;20.76;33.42;100769.64;106082;1289;60563;-81
2024/04/04 08:32:45;;;;;;;;;;;;;;;20.77;33.25;100769.36;106088;1289;60059;-80
2024/04/04 08:35:11;;;;;;;;;;;;;;;20.78;33.20;100768.25;104859;1291;63000;-81
2024/04/04 08:37:36;;;;;;;;;;;;;;;20.80;33.05;100764.92;104900;1292;60324;-79
2024/04/04 08:40:03;;;;;;;;;;;;;;;20.77;32.80;100760.60;104544;1291;62886;-79
2024/04/04 08:42:29;;;;;;;;;;;;;;;20.73;32.77;100762.15;104605;1294;62810;-78
2024/04/04 08:44:56;;;;;;;;;;;;;;;20.70;32.76;100762.71;104815;1294;63072;-81
2024/04/04 08:47:21;;;;;;;;;;;;;;;20.70;32.82;100763.77;104740;1289;63007;-79
2024/04/04 08:49:47;;;;;;;;;;;;;;;20.73;32.66;100760.34;104607;1290;63544;-81
2024/04/04 08:52:16;;;;;;;;;;;;;;;20.76;32.66;100761.60;105029;1290;62783;-79
2024/04/04 08:54:42;;;;;;;;;;;;;;;20.78;32.72;100760.55;104588;1294;62865;-79
2024/04/04 08:57:08;;;;;;;;;;;;;;;20.82;32.89;100758.83;105286;1291;64946;-79
2024/04/04 08:59:33;;;;;;;;;;;;;;;20.88;32.99;100762.19;104963;1289;62999;-81
2024/04/04 09:01:59;;;;;;;;;;;;;;;20.93;33.34;100759.48;105236;1290;63020;-80
2024/04/04 09:04:25;;;;;;;;;;;;;;;21.00;33.74;100761.52;104788;1290;62946;-80
2024/04/04 09:06:51;;;;;;;;;;;;;;;21.05;34.13;100760.77;106005;1290;60530;-81
2024/04/04 09:09:17;;;;;;;;;;;;;;;21.10;34.36;100759.93;105967;1289;76291;-79
2024/04/04 09:11:42;;;;;;;;;;;;;;;21.14;34.47;100758.17;105868;1290;60418;-77
2024/04/04 09:14:11;;;;;;;;;;;;;;;21.18;34.64;100748.73;105622;1290;60743;-79
2024/04/04 09:16:38;;;;;;;;;;;;;;;21.23;34.68;100746.62;104486;1294;72297;-77
2024/04/04 09:19:09;;;;;;;;;;;;;;;21.24;34.67;100747.92;104530;1292;62970;-80
2024/04/04 09:21:36;;;;;;;;;;;;;;;21.27;34.70;100750.40;104995;1290;62725;-78
2024/04/04 09:24:04;;;;;;;;;;;;;;;21.29;34.92;100748.50;104932;1291;63615;-79
2024/04/04 09:26:30;;;;;;;;;;;;;;;21.33;35.15;100748.73;104749;1289;72009;-78
2024/04/04 09:28:57;;;;;;;;;;;;;;;21.35;35.18;100744.27;104595;1290;75574;-80
2024/04/04 09:31:26;;;;;;;;;;;;;;;21.35;35.02;100746.84;104474;1291;62931;-78
2024/04/04 09:33:51;;;;;;;;;;;;;;;21.35;34.97;100752.77;104700;1289;62880;-80
2024/04/04 09:36:17;;;;;;;;;;;;;;;21.30;34.61;100748.63;104804;1291;63003;-79
2024/04/04 09:38:42;;;;;;;;;;;;;;;21.21;34.40;100747.79;104329;1291;63097;-78
2024/04/04 09:41:09;;;;;;;;;;;;;;;21.19;34.23;100747.05;104650;1289;61463;-77
2024/04/04 09:43:34;;;;;;;;;;;;;;;21.18;34.35;100748.20;104632;1291;63008;-79
2024/04/04 09:46:00;;;;;;;;;;;;;;;21.19;34.36;100748.71;104504;1290;62865;-79
2024/04/04 09:48:25;;;;;;;;;;;;;;;21.19;34.35;100750.64;104514;1291;72616;-78
2024/04/04 09:50:51;;;;;;;;;;;;;;;21.20;34.33;100747.38;104448;1289;62990;-79
2024/04/04 09:53:17;;;;;;;;;;;;;;;21.20;34.30;100743.77;104428;1291;62955;-78
2024/04/04 09:55:46;;;;;;;;;;;;;;;21.19;34.07;100741.52;104344;1290;61729;-79
2024/04/04 09:58:12;;;;;;;;;;;;;;;21.18;34.02;100738.88;104143;1289;71516;-78
2024/04/04 10:00:40;;;;;;;;;;;;;;;21.18;34.05;100733.35;104160;1292;63081;-80
2024/04/04 10:03:10;;;;;;;;;;;;;;;21.18;33.93;100734.97;104809;1290;62802;-77
2024/04/04 10:05:36;;;;;;;;;;;;;;;21.21;34.13;100735.67;104817;1291;62736;-80
2024/04/04 10:08:11;;;;;;;;;;;;;;;21.23;34.12;100735.32;104830;1291;63243;-78
2024/04/04 10:10:37;;;;;;;;;;;;;;;21.23;34.16;100734.05;104498;1290;76087;-78
2024/04/04 10:13:06;;;;;;;;;;;;;;;21.23;34.14;100732.99;104623;1289;62920;-80
2024/04/04 10:15:45;;;;;;;;;;;;;;;21.25;34.05;100731.98;104498;1289;62691;-79
2024/04/04 10:18:11;;;;;;;;;;;;;;;21.26;34.31;100730.64;104636;1291;72437;-80
2024/04/04 10:20:39;;;;;;;;;;;;;;;21.26;34.29;100729.52;104548;1289;60729;-78
2024/04/04 10:23:05;;;;;;;;;;;;;;;21.26;34.00;100724.02;104530;1290;62864;-80
2024/04/04 10:25:31;;;;;;;;;;;;;;;21.24;33.93;100730.21;104751;1289;63017;-78
2024/04/04 10:28:03;;;;;;;;;;;;;;;21.25;33.92;100732.14;104335;1290;62982;-80
2024/04/04 10:30:33;;;;;;;;;;;;;;;21.28;34.00;100727.30;104144;1291;75069;-79
2024/04/04 10:33:04;;;;;;;;;;;;;;;21.31;34.15;100726.21;104559;1289;62925;-81
2024/04/04 10:35:29;;;;;;;;;;;;;;;21.35;34.36;100733.92;104246;1291;63002;-80
2024/04/04 10:38:04;;;;;;;;;;;;;;;21.37;34.28;100733.08;104408;1293;63005;-80
2024/04/04 10:40:30;;;;;;;;;;;;;;;21.38;34.23;100735.83;104179;1290;76056;-80
2024/04/04 10:42:56;;;;;;;;;;;;;;;21.40;34.23;100735.51;104351;1291;60840;-81
2024/04/04 10:45:25;;;;;;;;;;;;;;;21.43;34.30;100732.77;104266;1289;62959;-79
2024/04/04 10:47:57;;;;;;;;;;;;;;;21.44;33.99;100730.73;103898;1291;72597;-80
2024/04/04 10:50:22;;;;;;;;;;;;;;;21.44;33.94;100732.55;104264;1291;76143;-82
2024/04/04 10:52:48;;;;;;;;;;;;;;;21.43;33.56;100736.73;104571;1292;62989;-80
2024/04/04 10:55:13;;;;;;;;;;;;;;;21.42;33.42;100735.56;104773;1291;62926;-81
2024/04/04 10:57:39;;;;;;;;;;;;;;;21.42;33.45;100734.31;104654;1292;62997;-81
2024/04/04 11:00:11;;;;;;;;;;;;;;;21.42;33.13;100736.13;104722;1294;63010;-81
2024/04/04 11:02:37;;;;;;;;;;;;;;;21.40;32.89;100737.98;104972;1290;75921;-81
2024/04/04 11:05:07;;;;;;;;;;;;;;;21.41;33.00;100738.46;105272;1290;62720;-81
2024/04/04 11:07:34;;;;;;;;;;;;;;;21.44;33.16;100743.98;105372;1291;60652;-81
2024/04/04 11:09:59;;;;;;;;;;;;;;;21.47;33.19;100740.77;105517;1290;72618;-80
2024/04/04 11:12:25;;;;;;;;;;;;;;;21.49;33.14;100741.33;105393;1289;61225;-81
2024/04/04 11:14:51;;;;;;;;;;;;;;;21.50;33.09;100743.58;105036;1289;60963;-80
2024/04/04 11:17:16;;;;;;;;;;;;;;;21.49;32.98;100747.77;105096;1290;62980;-80
2024/04/04 11:19:42;;;;;;;;;;;;;;;21.49;33.03;100748.52;105253;1290;62957;-81
2024/04/04 11:22:08;;;;;;;;;;;;;;;21.49;33.03;100750.83;105076;1291;61855;-81
2024/04/04 11:24:34;;;;;;;;;;;;;;;21.48;33.03;100755.85;105073;1291;76133;-83
2024/04/04 11:26:59;;;;;;;;;;;;;;;21.48;32.97;100751.23;105031;1289;62917;-82
2024/04/04 11:29:25;;;;;;;;;;;;;;;21.47;32.93;100748.78;105261;1293;62927;-79
2024/04/04 11:31:53;;;;;;;;;;;;;;;21.47;32.85;100756.70;105173;1290;63090;-80
2024/04/04 11:34:20;;;;;;;;;;;;;;;21.47;32.94;100753.27;106044;1290;61053;-80
2024/04/04 11:36:45;;;;;;;;;;;;;;;21.48;32.94;100754.09;106063;1290;61165;-77
2024/04/04 11:39:11;;;;;;;;;;;;;;;21.49;33.09;100752.79;106010;1290;60648;-82
2024/04/04 11:41:36;;;;;;;;;;;;;;;21.50;33.07;100758.58;105932;1289;61840;-79
2024/04/04 11:44:03;;;;;;;;;;;;;;;21.51;33.15;100755.48;106058;1291;61183;-81
2024/04/04 11:46:28;;;;;;;;;;;;;;;21.51;33.32;100751.92;106012;1289;75877;-80
2024/04/04 11:48:54;;;;;;;;;;;;;;;21.51;33.52;100755.46;105254;1291;62982;-79
2024/04/04 11:51:20;;;;;;;;;;;;;;;21.52;33.41;100754.73;104769;1289;63012;-81
2024/04/04 11:53:45;;;;;;;;;;;;;;;21.52;33.64;100754.73;104947;1291;63094;-81
2024/04/04 11:56:11;;;;;;;;;;;;;;;21.52;33.60;100746.61;105038;1291;61488;-80
2024/04/04 11:58:38;;;;;;;;;;;;;;;21.53;33.74;100738.89;104976;1289;76287;-80
2024/04/04 12:01:04;;;;;;;;;;;;;;;21.52;33.51;100734.60;104988;1290;62816;-80
2024/04/04 12:03:29;;;;;;;;;;;;;;;21.51;33.48;100732.05;105153;1291;62888;-80
2024/04/04 12:05:55;;;;;;;;;;;;;;;21.50;33.48;100729.25;105105;1291;61554;-81
2024/04/04 12:08:21;;;;;;;;;;;;;;;21.48;33.51;100729.73;105035;1291;63029;-80
2024/04/04 12:10:46;;;;;;;;;;;;;;;21.48;33.54;100731.53;105294;1290;62930;-80
2024/04/04 12:13:12;;;;;;;;;;;;;;;21.48;33.41;100732.63;105337;1291;63054;-81
2024/04/04 12:15:38;;;;;;;;;;;;;;;21.48;33.47;100735.48;104930;1291;62803;-81
2024/04/04 12:20:49;;;;;;;;;;;;;;;21.48;33.35;100738.90;105126;1291;74987;-81
2024/04/04 12:23:15;;;;;;;;;;;;;;;21.49;33.58;100738.08;105328;1292;62653;-81